sensor_id;sensor_type;location;lat;lon;timestamp;P1;durP1;ratioP1;P2;durP2;ratioP2
69979;SDS011;57318;56.232;43.944;2023-02-01T00:02:08;21.33;;;10.23;;
69979;SDS011;57318;56.232;43.944;2023-02-01T00:04:34;21.17;;;9.27;;
69979;SDS011;57318;56.232;43.944;2023-02-01T00:06:59;23.93;;;8.93;;
69979;SDS011;57318;56.232;43.944;2023-02-01T00:09:26;25.17;;;12.15;;
69979;SDS011;57318;56.232;43.944;2023-02-01T00:11:52;26.03;;;10.33;;
69979;SDS011;57318;56.232;43.944;2023-02-01T00:14:17;21.33;;;9.33;;
69979;SDS011;57318;56.232;43.944;2023-02-01T00:16:43;22.93;;;10.03;;
69979;SDS011;57318;56.232;43.944;2023-02-01T00:19:13;23.77;;;9.77;;
69979;SDS011;57318;56.232;43.944;2023-02-01T00:21:39;24.77;;;10.45;;
69979;SDS011;57318;56.232;43.944;2023-02-01T00:24:06;22.65;;;8.32;;
69979;SDS011;57318;56.232;43.944;2023-02-01T00:28:57;23.80;;;10.50;;
69979;SDS011;57318;56.232;43.944;2023-02-01T00:31:23;20.42;;;8.95;;
69979;SDS011;57318;56.232;43.944;2023-02-01T00:33:49;22.80;;;9.60;;
69979;SDS011;57318;56.232;43.944;2023-02-01T00:36:15;23.33;;;11.45;;
69979;SDS011;57318;56.232;43.944;2023-02-01T00:38:40;23.93;;;9.27;;
69979;SDS011;57318;56.232;43.944;2023-02-01T00:41:07;22.27;;;10.13;;
69979;SDS011;57318;56.232;43.944;2023-02-01T00:43:36;23.52;;;9.32;;
69979;SDS011;57318;56.232;43.944;2023-02-01T00:46:02;20.43;;;10.63;;
69979;SDS011;57318;56.232;43.944;2023-02-01T00:48:28;20.50;;;8.52;;
69979;SDS011;57318;56.232;43.944;2023-02-01T00:50:54;25.70;;;10.10;;
69979;SDS011;57318;56.232;43.944;2023-02-01T00:53:20;26.53;;;11.80;;
69979;SDS011;57318;56.232;43.944;2023-02-01T00:55:45;18.80;;;9.03;;
69979;SDS011;57318;56.232;43.944;2023-02-01T01:00:37;25.98;;;11.45;;
69979;SDS011;57318;56.232;43.944;2023-02-01T01:03:03;19.73;;;9.10;;
69979;SDS011;57318;56.232;43.944;2023-02-01T01:05:43;24.70;;;9.95;;
69979;SDS011;57318;56.232;43.944;2023-02-01T01:08:09;22.45;;;9.93;;
69979;SDS011;57318;56.232;43.944;2023-02-01T01:10:35;27.87;;;11.93;;
69979;SDS011;57318;56.232;43.944;2023-02-01T01:13:01;27.03;;;10.57;;
69979;SDS011;57318;56.232;43.944;2023-02-01T01:15:26;21.47;;;10.00;;
69979;SDS011;57318;56.232;43.944;2023-02-01T01:17:52;25.13;;;11.20;;
69979;SDS011;57318;56.232;43.944;2023-02-01T01:20:17;25.03;;;11.20;;
69979;SDS011;57318;56.232;43.944;2023-02-01T01:22:46;26.30;;;10.02;;
69979;SDS011;57318;56.232;43.944;2023-02-01T01:25:15;24.00;;;11.93;;
69979;SDS011;57318;56.232;43.944;2023-02-01T01:27:40;25.00;;;10.80;;
69979;SDS011;57318;56.232;43.944;2023-02-01T01:30:06;26.80;;;10.47;;
69979;SDS011;57318;56.232;43.944;2023-02-01T01:32:32;24.38;;;9.85;;
69979;SDS011;57318;56.232;43.944;2023-02-01T01:34:58;24.23;;;10.47;;
69979;SDS011;57318;56.232;43.944;2023-02-01T01:37:24;26.77;;;11.80;;
69979;SDS011;57318;56.232;43.944;2023-02-01T01:39:49;27.53;;;12.00;;
69979;SDS011;57318;56.232;43.944;2023-02-01T01:42:15;24.83;;;10.00;;
69979;SDS011;57318;56.232;43.944;2023-02-01T01:44:57;27.20;;;10.50;;
69979;SDS011;57318;56.232;43.944;2023-02-01T01:47:43;27.70;;;12.45;;
69979;SDS011;57318;56.232;43.944;2023-02-01T01:50:13;28.23;;;13.18;;
69979;SDS011;57318;56.232;43.944;2023-02-01T01:52:42;24.58;;;10.63;;
69979;SDS011;57318;56.232;43.944;2023-02-01T01:55:12;25.88;;;11.70;;
69979;SDS011;57318;56.232;43.944;2023-02-01T01:57:41;26.63;;;10.98;;
69979;SDS011;57318;56.232;43.944;2023-02-01T02:00:10;25.67;;;9.63;;
69979;SDS011;57318;56.232;43.944;2023-02-01T02:02:39;26.15;;;10.48;;
69979;SDS011;57318;56.232;43.944;2023-02-01T02:05:07;24.60;;;10.52;;
69979;SDS011;57318;56.232;43.944;2023-02-01T02:07:35;24.45;;;11.05;;
69979;SDS011;57318;56.232;43.944;2023-02-01T02:10:06;30.65;;;12.77;;
69979;SDS011;57318;56.232;43.944;2023-02-01T02:12:37;28.67;;;11.15;;
69979;SDS011;57318;56.232;43.944;2023-02-01T02:15:05;29.35;;;10.43;;
69979;SDS011;57318;56.232;43.944;2023-02-01T02:42:45;21.05;;;9.73;;
69979;SDS011;57318;56.232;43.944;2023-02-01T02:48:36;31.25;;;14.18;;
69979;SDS011;57318;56.232;43.944;2023-02-01T02:51:26;27.17;;;10.73;;
69979;SDS011;57318;56.232;43.944;2023-02-01T02:54:17;28.92;;;11.88;;
69979;SDS011;57318;56.232;43.944;2023-02-01T02:57:07;33.00;;;13.52;;
69979;SDS011;57318;56.232;43.944;2023-02-01T03:02:39;23.20;;;10.25;;
69979;SDS011;57318;56.232;43.944;2023-02-01T03:05:23;28.40;;;11.05;;
69979;SDS011;57318;56.232;43.944;2023-02-01T03:21:43;26.00;;;12.07;;
69979;SDS011;57318;56.232;43.944;2023-02-01T03:27:11;31.50;;;12.25;;
69979;SDS011;57318;56.232;43.944;2023-02-01T03:29:46;25.85;;;10.40;;
69979;SDS011;57318;56.232;43.944;2023-02-01T03:32:15;24.23;;;10.32;;
69979;SDS011;57318;56.232;43.944;2023-02-01T03:34:41;26.60;;;10.45;;
69979;SDS011;57318;56.232;43.944;2023-02-01T03:42:17;26.08;;;10.50;;
69979;SDS011;57318;56.232;43.944;2023-02-01T03:44:56;27.38;;;11.35;;
69979;SDS011;57318;56.232;43.944;2023-02-01T03:47:29;28.67;;;13.07;;
69979;SDS011;57318;56.232;43.944;2023-02-01T03:50:01;32.10;;;13.25;;
69979;SDS011;57318;56.232;43.944;2023-02-01T03:52:32;30.60;;;12.43;;
69979;SDS011;57318;56.232;43.944;2023-02-01T03:55:04;25.27;;;10.82;;
69979;SDS011;57318;56.232;43.944;2023-02-01T03:57:37;25.98;;;10.15;;
69979;SDS011;57318;56.232;43.944;2023-02-01T04:00:08;27.42;;;11.68;;
69979;SDS011;57318;56.232;43.944;2023-02-01T04:02:41;25.83;;;10.68;;
69979;SDS011;57318;56.232;43.944;2023-02-01T04:05:07;26.97;;;12.47;;
69979;SDS011;57318;56.232;43.944;2023-02-01T04:07:33;28.67;;;11.55;;
69979;SDS011;57318;56.232;43.944;2023-02-01T04:09:58;24.83;;;10.33;;
69979;SDS011;57318;56.232;43.944;2023-02-01T04:12:24;31.00;;;11.47;;
69979;SDS011;57318;56.232;43.944;2023-02-01T04:14:49;26.80;;;13.00;;
69979;SDS011;57318;56.232;43.944;2023-02-01T04:17:15;28.40;;;13.20;;
69979;SDS011;57318;56.232;43.944;2023-02-01T04:19:41;28.00;;;10.73;;
69979;SDS011;57318;56.232;43.944;2023-02-01T04:22:06;27.30;;;10.35;;
69979;SDS011;57318;56.232;43.944;2023-02-01T04:24:33;26.95;;;11.48;;
69979;SDS011;57318;56.232;43.944;2023-02-01T04:26:59;30.30;;;12.73;;
69979;SDS011;57318;56.232;43.944;2023-02-01T04:29:24;28.93;;;11.67;;
69979;SDS011;57318;56.232;43.944;2023-02-01T04:31:50;27.00;;;11.70;;
69979;SDS011;57318;56.232;43.944;2023-02-01T04:34:16;26.77;;;10.70;;
69979;SDS011;57318;56.232;43.944;2023-02-01T04:36:41;26.63;;;11.60;;
69979;SDS011;57318;56.232;43.944;2023-02-01T04:39:08;26.87;;;11.80;;
69979;SDS011;57318;56.232;43.944;2023-02-01T04:41:34;27.73;;;13.43;;
69979;SDS011;57318;56.232;43.944;2023-02-01T04:44:00;26.40;;;10.83;;
69979;SDS011;57318;56.232;43.944;2023-02-01T04:46:25;27.37;;;11.60;;
69979;SDS011;57318;56.232;43.944;2023-02-01T04:48:51;26.73;;;11.40;;
69979;SDS011;57318;56.232;43.944;2023-02-01T04:51:17;27.57;;;11.90;;
69979;SDS011;57318;56.232;43.944;2023-02-01T04:53:43;29.00;;;10.88;;
69979;SDS011;57318;56.232;43.944;2023-02-01T04:58:35;30.08;;;13.10;;
69979;SDS011;57318;56.232;43.944;2023-02-01T05:01:05;29.37;;;13.57;;
69979;SDS011;57318;56.232;43.944;2023-02-01T05:03:32;29.83;;;13.32;;
69979;SDS011;57318;56.232;43.944;2023-02-01T05:08:24;27.60;;;10.13;;
69979;SDS011;57318;56.232;43.944;2023-02-01T05:10:51;28.48;;;11.93;;
69979;SDS011;57318;56.232;43.944;2023-02-01T05:13:17;22.47;;;10.07;;
69979;SDS011;57318;56.232;43.944;2023-02-01T05:16:01;26.23;;;10.98;;
69979;SDS011;57318;56.232;43.944;2023-02-01T05:18:27;24.57;;;9.90;;
69979;SDS011;57318;56.232;43.944;2023-02-01T05:20:52;30.63;;;10.70;;
69979;SDS011;57318;56.232;43.944;2023-02-01T05:23:18;31.33;;;13.13;;
69979;SDS011;57318;56.232;43.944;2023-02-01T05:25:43;36.30;;;13.93;;
69979;SDS011;57318;56.232;43.944;2023-02-01T05:28:09;23.40;;;9.47;;
69979;SDS011;57318;56.232;43.944;2023-02-01T05:30:34;23.93;;;9.80;;
69979;SDS011;57318;56.232;43.944;2023-02-01T05:33:00;25.73;;;10.43;;
69979;SDS011;57318;56.232;43.944;2023-02-01T05:37:52;24.60;;;11.10;;
69979;SDS011;57318;56.232;43.944;2023-02-01T05:40:19;25.85;;;9.60;;
69979;SDS011;57318;56.232;43.944;2023-02-01T05:42:45;29.33;;;12.37;;
69979;SDS011;57318;56.232;43.944;2023-02-01T05:45:10;26.93;;;11.57;;
69979;SDS011;57318;56.232;43.944;2023-02-01T05:47:36;29.15;;;12.38;;
69979;SDS011;57318;56.232;43.944;2023-02-01T05:50:02;22.80;;;8.93;;
69979;SDS011;57318;56.232;43.944;2023-02-01T05:52:29;28.73;;;11.35;;
69979;SDS011;57318;56.232;43.944;2023-02-01T05:54:55;26.00;;;9.67;;
69979;SDS011;57318;56.232;43.944;2023-02-01T05:57:20;28.43;;;11.50;;
69979;SDS011;57318;56.232;43.944;2023-02-01T05:59:46;24.40;;;9.52;;
69979;SDS011;57318;56.232;43.944;2023-02-01T06:02:14;25.90;;;10.70;;
69979;SDS011;57318;56.232;43.944;2023-02-01T06:04:41;28.67;;;11.65;;
69979;SDS011;57318;56.232;43.944;2023-02-01T06:07:06;22.63;;;9.10;;
69979;SDS011;57318;56.232;43.944;2023-02-01T06:09:34;21.73;;;10.55;;
69979;SDS011;57318;56.232;43.944;2023-02-01T06:12:00;23.55;;;10.15;;
69979;SDS011;57318;56.232;43.944;2023-02-01T06:14:26;22.70;;;9.57;;
69979;SDS011;57318;56.232;43.944;2023-02-01T06:16:56;22.90;;;10.15;;
69979;SDS011;57318;56.232;43.944;2023-02-01T06:19:22;22.23;;;9.20;;
69979;SDS011;57318;56.232;43.944;2023-02-01T06:21:48;26.38;;;10.80;;
69979;SDS011;57318;56.232;43.944;2023-02-01T06:24:14;23.10;;;10.27;;
69979;SDS011;57318;56.232;43.944;2023-02-01T06:26:40;25.33;;;10.55;;
69979;SDS011;57318;56.232;43.944;2023-02-01T06:29:06;23.13;;;12.47;;
69979;SDS011;57318;56.232;43.944;2023-02-01T06:31:32;20.45;;;9.60;;
69979;SDS011;57318;56.232;43.944;2023-02-01T06:36:24;23.70;;;10.10;;
69979;SDS011;57318;56.232;43.944;2023-02-01T06:38:49;26.53;;;11.27;;
69979;SDS011;57318;56.232;43.944;2023-02-01T06:41:15;24.87;;;10.03;;
69979;SDS011;57318;56.232;43.944;2023-02-01T06:43:41;30.48;;;12.93;;
69979;SDS011;57318;56.232;43.944;2023-02-01T06:46:08;24.00;;;9.47;;
69979;SDS011;57318;56.232;43.944;2023-02-01T06:48:36;24.85;;;9.77;;
69979;SDS011;57318;56.232;43.944;2023-02-01T06:51:02;26.83;;;10.50;;
69979;SDS011;57318;56.232;43.944;2023-02-01T06:53:28;25.40;;;12.20;;
69979;SDS011;57318;56.232;43.944;2023-02-01T06:58:30;26.05;;;10.32;;
69979;SDS011;57318;56.232;43.944;2023-02-01T07:00:57;21.13;;;9.10;;
69979;SDS011;57318;56.232;43.944;2023-02-01T07:03:24;18.17;;;8.25;;
69979;SDS011;57318;56.232;43.944;2023-02-01T07:05:49;20.58;;;9.68;;
69979;SDS011;57318;56.232;43.944;2023-02-01T07:08:15;21.57;;;9.30;;
69979;SDS011;57318;56.232;43.944;2023-02-01T07:10:40;24.53;;;10.00;;
69979;SDS011;57318;56.232;43.944;2023-02-01T07:13:06;24.13;;;10.90;;
69979;SDS011;57318;56.232;43.944;2023-02-01T07:15:32;28.20;;;10.57;;
69979;SDS011;57318;56.232;43.944;2023-02-01T07:17:58;25.55;;;10.60;;
69979;SDS011;57318;56.232;43.944;2023-02-01T07:20:23;26.40;;;10.97;;
69979;SDS011;57318;56.232;43.944;2023-02-01T07:22:54;22.48;;;8.93;;
69979;SDS011;57318;56.232;43.944;2023-02-01T07:25:21;26.38;;;10.57;;
69979;SDS011;57318;56.232;43.944;2023-02-01T07:27:46;24.20;;;9.67;;
69979;SDS011;57318;56.232;43.944;2023-02-01T07:30:12;23.97;;;10.00;;
69979;SDS011;57318;56.232;43.944;2023-02-01T07:32:38;23.30;;;10.67;;
69979;SDS011;57318;56.232;43.944;2023-02-01T07:35:03;21.40;;;10.40;;
69979;SDS011;57318;56.232;43.944;2023-02-01T07:37:29;22.05;;;9.00;;
69979;SDS011;57318;56.232;43.944;2023-02-01T07:39:55;21.38;;;8.80;;
69979;SDS011;57318;56.232;43.944;2023-02-01T07:42:21;20.60;;;9.20;;
69979;SDS011;57318;56.232;43.944;2023-02-01T07:44:47;20.53;;;7.83;;
69979;SDS011;57318;56.232;43.944;2023-02-01T07:47:12;20.67;;;9.13;;
69979;SDS011;57318;56.232;43.944;2023-02-01T07:49:38;23.67;;;10.33;;
69979;SDS011;57318;56.232;43.944;2023-02-01T07:52:03;19.43;;;8.50;;
69979;SDS011;57318;56.232;43.944;2023-02-01T07:54:29;21.53;;;9.40;;
69979;SDS011;57318;56.232;43.944;2023-02-01T07:56:54;25.33;;;10.60;;
69979;SDS011;57318;56.232;43.944;2023-02-01T07:59:21;20.63;;;9.15;;
69979;SDS011;57318;56.232;43.944;2023-02-01T08:01:46;22.00;;;9.87;;
69979;SDS011;57318;56.232;43.944;2023-02-01T08:04:12;22.60;;;9.20;;
69979;SDS011;57318;56.232;43.944;2023-02-01T08:06:38;23.80;;;9.77;;
69979;SDS011;57318;56.232;43.944;2023-02-01T08:09:05;22.77;;;10.27;;
69979;SDS011;57318;56.232;43.944;2023-02-01T08:11:32;18.95;;;7.65;;
69979;SDS011;57318;56.232;43.944;2023-02-01T08:13:58;22.00;;;8.90;;
69979;SDS011;57318;56.232;43.944;2023-02-01T08:16:25;23.08;;;10.10;;
69979;SDS011;57318;56.232;43.944;2023-02-01T08:18:51;21.37;;;8.70;;
69979;SDS011;57318;56.232;43.944;2023-02-01T08:21:21;20.55;;;10.30;;
69979;SDS011;57318;56.232;43.944;2023-02-01T08:23:49;18.85;;;8.40;;
69979;SDS011;57318;56.232;43.944;2023-02-01T08:26:19;19.75;;;8.48;;
69979;SDS011;57318;56.232;43.944;2023-02-01T08:28:48;18.58;;;7.90;;
69979;SDS011;57318;56.232;43.944;2023-02-01T08:31:16;21.63;;;9.48;;
69979;SDS011;57318;56.232;43.944;2023-02-01T08:33:47;19.23;;;8.48;;
69979;SDS011;57318;56.232;43.944;2023-02-01T08:36:14;22.20;;;9.00;;
69979;SDS011;57318;56.232;43.944;2023-02-01T08:38:40;25.10;;;10.00;;
69979;SDS011;57318;56.232;43.944;2023-02-01T08:41:07;19.60;;;9.30;;
69979;SDS011;57318;56.232;43.944;2023-02-01T08:43:34;22.08;;;9.07;;
69979;SDS011;57318;56.232;43.944;2023-02-01T08:46:01;23.10;;;9.73;;
69979;SDS011;57318;56.232;43.944;2023-02-01T08:48:27;27.60;;;10.77;;
69979;SDS011;57318;56.232;43.944;2023-02-01T08:50:53;26.10;;;11.07;;
69979;SDS011;57318;56.232;43.944;2023-02-01T08:53:18;24.70;;;9.87;;
69979;SDS011;57318;56.232;43.944;2023-02-01T08:55:45;23.17;;;9.57;;
69979;SDS011;57318;56.232;43.944;2023-02-01T08:58:11;26.67;;;11.43;;
69979;SDS011;57318;56.232;43.944;2023-02-01T09:00:39;25.20;;;10.00;;
69979;SDS011;57318;56.232;43.944;2023-02-01T09:03:05;26.08;;;10.98;;
69979;SDS011;57318;56.232;43.944;2023-02-01T09:05:31;28.80;;;11.07;;
69979;SDS011;57318;56.232;43.944;2023-02-01T09:07:56;25.00;;;9.93;;
69979;SDS011;57318;56.232;43.944;2023-02-01T09:10:22;24.37;;;10.00;;
69979;SDS011;57318;56.232;43.944;2023-02-01T09:12:47;22.03;;;9.97;;
69979;SDS011;57318;56.232;43.944;2023-02-01T09:15:13;23.67;;;9.93;;
69979;SDS011;57318;56.232;43.944;2023-02-01T09:17:39;28.17;;;10.93;;
69979;SDS011;57318;56.232;43.944;2023-02-01T09:20:06;25.65;;;10.82;;
69979;SDS011;57318;56.232;43.944;2023-02-01T09:22:32;22.55;;;9.88;;
69979;SDS011;57318;56.232;43.944;2023-02-01T09:24:58;24.23;;;10.07;;
69979;SDS011;57318;56.232;43.944;2023-02-01T09:27:23;27.67;;;11.53;;
69979;SDS011;57318;56.232;43.944;2023-02-01T09:29:49;24.60;;;11.07;;
69979;SDS011;57318;56.232;43.944;2023-02-01T09:32:19;25.13;;;10.77;;
69979;SDS011;57318;56.232;43.944;2023-02-01T09:34:45;23.95;;;10.02;;
69979;SDS011;57318;56.232;43.944;2023-02-01T09:37:11;21.30;;;9.43;;
69979;SDS011;57318;56.232;43.944;2023-02-01T09:39:36;24.53;;;9.20;;
69979;SDS011;57318;56.232;43.944;2023-02-01T09:48:00;23.30;;;9.13;;
69979;SDS011;57318;56.232;43.944;2023-02-01T09:50:35;24.63;;;9.95;;
69979;SDS011;57318;56.232;43.944;2023-02-01T09:53:12;27.63;;;10.50;;
69979;SDS011;57318;56.232;43.944;2023-02-01T09:55:43;23.52;;;9.95;;
69979;SDS011;57318;56.232;43.944;2023-02-01T09:58:20;25.75;;;10.98;;
69979;SDS011;57318;56.232;43.944;2023-02-01T10:00:53;24.60;;;10.70;;
69979;SDS011;57318;56.232;43.944;2023-02-01T10:03:22;18.90;;;8.88;;
69979;SDS011;57318;56.232;43.944;2023-02-01T10:11:36;23.48;;;9.15;;
69979;SDS011;57318;56.232;43.944;2023-02-01T10:14:45;28.05;;;10.45;;
69979;SDS011;57318;56.232;43.944;2023-02-01T10:18:22;26.65;;;10.45;;
69979;SDS011;57318;56.232;43.944;2023-02-01T10:26:26;28.30;;;11.20;;
69979;SDS011;57318;56.232;43.944;2023-02-01T10:29:02;27.08;;;10.68;;
69979;SDS011;57318;56.232;43.944;2023-02-01T10:31:30;26.33;;;11.18;;
69979;SDS011;57318;56.232;43.944;2023-02-01T10:34:33;28.95;;;11.43;;
69979;SDS011;57318;56.232;43.944;2023-02-01T10:39:21;28.35;;;10.75;;
69979;SDS011;57318;56.232;43.944;2023-02-01T10:41:48;24.77;;;10.43;;
69979;SDS011;57318;56.232;43.944;2023-02-01T10:44:15;23.90;;;11.43;;
69979;SDS011;57318;56.232;43.944;2023-02-01T10:46:45;27.75;;;11.35;;
69979;SDS011;57318;56.232;43.944;2023-02-01T10:49:18;25.83;;;9.70;;
69979;SDS011;57318;56.232;43.944;2023-02-01T10:54:38;26.77;;;11.30;;
69979;SDS011;57318;56.232;43.944;2023-02-01T10:59:33;25.10;;;11.05;;
69979;SDS011;57318;56.232;43.944;2023-02-01T11:02:34;25.65;;;11.00;;
69979;SDS011;57318;56.232;43.944;2023-02-01T11:07:33;29.77;;;11.07;;
69979;SDS011;57318;56.232;43.944;2023-02-01T11:10:01;32.33;;;12.15;;
69979;SDS011;57318;56.232;43.944;2023-02-01T11:12:30;28.95;;;11.60;;
69979;SDS011;57318;56.232;43.944;2023-02-01T11:14:58;31.02;;;11.82;;
69979;SDS011;57318;56.232;43.944;2023-02-01T11:17:38;28.20;;;10.30;;
69979;SDS011;57318;56.232;43.944;2023-02-01T11:20:17;29.73;;;13.05;;
69979;SDS011;57318;56.232;43.944;2023-02-01T11:22:49;21.00;;;10.00;;
69979;SDS011;57318;56.232;43.944;2023-02-01T11:25:19;27.00;;;11.18;;
69979;SDS011;57318;56.232;43.944;2023-02-01T11:30:17;27.83;;;10.32;;
69979;SDS011;57318;56.232;43.944;2023-02-01T11:32:52;28.50;;;11.02;;
69979;SDS011;57318;56.232;43.944;2023-02-01T11:35:19;27.23;;;10.80;;
69979;SDS011;57318;56.232;43.944;2023-02-01T11:37:49;24.20;;;10.13;;
69979;SDS011;57318;56.232;43.944;2023-02-01T11:40:36;26.95;;;11.85;;
69979;SDS011;57318;56.232;43.944;2023-02-01T11:45:33;27.02;;;11.20;;
69979;SDS011;57318;56.232;43.944;2023-02-01T11:48:00;29.30;;;12.02;;
69979;SDS011;57318;56.232;43.944;2023-02-01T11:59:04;31.45;;;12.15;;
69979;SDS011;57318;56.232;43.944;2023-02-01T12:04:42;34.10;;;12.00;;
69979;SDS011;57318;56.232;43.944;2023-02-01T12:17:56;30.50;;;12.65;;
69979;SDS011;57318;56.232;43.944;2023-02-01T12:23:28;31.02;;;12.40;;
69979;SDS011;57318;56.232;43.944;2023-02-01T12:43:46;33.28;;;12.18;;
69979;SDS011;57318;56.232;43.944;2023-02-01T12:46:29;40.30;;;13.85;;
69979;SDS011;57318;56.232;43.944;2023-02-01T12:49:04;34.45;;;14.13;;
69979;SDS011;57318;56.232;43.944;2023-02-01T12:51:40;39.90;;;14.38;;
69979;SDS011;57318;56.232;43.944;2023-02-01T12:56:53;40.90;;;12.30;;
69979;SDS011;57318;56.232;43.944;2023-02-01T13:02:04;40.47;;;13.85;;
69979;SDS011;57318;56.232;43.944;2023-02-01T13:04:40;40.92;;;14.00;;
69979;SDS011;57318;56.232;43.944;2023-02-01T13:07:27;38.92;;;15.65;;
69979;SDS011;57318;56.232;43.944;2023-02-01T13:10:11;36.17;;;15.05;;
69979;SDS011;57318;56.232;43.944;2023-02-01T13:13:08;39.47;;;15.77;;
69979;SDS011;57318;56.232;43.944;2023-02-01T13:15:54;38.20;;;14.15;;
69979;SDS011;57318;56.232;43.944;2023-02-01T13:18:29;36.95;;;14.68;;
69979;SDS011;57318;56.232;43.944;2023-02-01T13:23:52;41.47;;;15.43;;
69979;SDS011;57318;56.232;43.944;2023-02-01T13:26:21;39.70;;;13.73;;
69979;SDS011;57318;56.232;43.944;2023-02-01T13:28:51;45.07;;;15.23;;
69979;SDS011;57318;56.232;43.944;2023-02-01T13:37:05;46.92;;;15.02;;
69979;SDS011;57318;56.232;43.944;2023-02-01T13:42:50;42.45;;;15.45;;
69979;SDS011;57318;56.232;43.944;2023-02-01T13:45:23;36.67;;;13.02;;
69979;SDS011;57318;56.232;43.944;2023-02-01T13:47:52;41.08;;;14.65;;
69979;SDS011;57318;56.232;43.944;2023-02-01T13:50:37;39.22;;;14.82;;
69979;SDS011;57318;56.232;43.944;2023-02-01T13:55:40;53.38;;;16.42;;
69979;SDS011;57318;56.232;43.944;2023-02-01T14:00:45;42.03;;;15.82;;
69979;SDS011;57318;56.232;43.944;2023-02-01T14:03:17;44.25;;;15.15;;
69979;SDS011;57318;56.232;43.944;2023-02-01T14:08:13;46.50;;;15.30;;
69979;SDS011;57318;56.232;43.944;2023-02-01T14:10:58;40.25;;;14.63;;
69979;SDS011;57318;56.232;43.944;2023-02-01T14:23:43;47.55;;;15.27;;
69979;SDS011;57318;56.232;43.944;2023-02-01T14:26:11;48.03;;;16.75;;
69979;SDS011;57318;56.232;43.944;2023-02-01T14:28:42;49.90;;;18.50;;
69979;SDS011;57318;56.232;43.944;2023-02-01T14:31:15;46.63;;;16.00;;
69979;SDS011;57318;56.232;43.944;2023-02-01T14:33:44;47.63;;;16.10;;
69979;SDS011;57318;56.232;43.944;2023-02-01T14:38:38;53.42;;;17.42;;
69979;SDS011;57318;56.232;43.944;2023-02-01T14:41:24;45.75;;;16.52;;
69979;SDS011;57318;56.232;43.944;2023-02-01T14:49:30;42.05;;;16.10;;
69979;SDS011;57318;56.232;43.944;2023-02-01T14:51:58;44.85;;;15.98;;
69979;SDS011;57318;56.232;43.944;2023-02-01T14:54:25;53.33;;;18.88;;
69979;SDS011;57318;56.232;43.944;2023-02-01T14:56:52;50.97;;;16.38;;
69979;SDS011;57318;56.232;43.944;2023-02-01T14:59:20;42.85;;;15.30;;
69979;SDS011;57318;56.232;43.944;2023-02-01T15:01:53;43.17;;;14.50;;
69979;SDS011;57318;56.232;43.944;2023-02-01T15:04:25;49.22;;;17.13;;
69979;SDS011;57318;56.232;43.944;2023-02-01T15:06:53;42.13;;;15.98;;
69979;SDS011;57318;56.232;43.944;2023-02-01T15:11:58;46.30;;;15.55;;
69979;SDS011;57318;56.232;43.944;2023-02-01T15:19:53;44.55;;;16.13;;
69979;SDS011;57318;56.232;43.944;2023-02-01T15:22:19;41.28;;;14.35;;
69979;SDS011;57318;56.232;43.944;2023-02-01T15:24:51;44.38;;;16.35;;
69979;SDS011;57318;56.232;43.944;2023-02-01T15:27:20;45.83;;;16.05;;
69979;SDS011;57318;56.232;43.944;2023-02-01T15:29:46;45.53;;;15.95;;
69979;SDS011;57318;56.232;43.944;2023-02-01T15:32:32;41.77;;;16.00;;
69979;SDS011;57318;56.232;43.944;2023-02-01T15:35:00;42.47;;;15.30;;
69979;SDS011;57318;56.232;43.944;2023-02-01T15:37:27;44.17;;;14.73;;
69979;SDS011;57318;56.232;43.944;2023-02-01T15:45:37;48.00;;;15.95;;
69979;SDS011;57318;56.232;43.944;2023-02-01T15:48:02;50.23;;;16.30;;
69979;SDS011;57318;56.232;43.944;2023-02-01T15:50:32;44.90;;;16.08;;
69979;SDS011;57318;56.232;43.944;2023-02-01T15:52:58;47.28;;;17.30;;
69979;SDS011;57318;56.232;43.944;2023-02-01T15:55:33;50.40;;;17.80;;
69979;SDS011;57318;56.232;43.944;2023-02-01T15:58:09;42.17;;;16.60;;
69979;SDS011;57318;56.232;43.944;2023-02-01T16:00:53;51.50;;;17.38;;
69979;SDS011;57318;56.232;43.944;2023-02-01T16:03:45;47.40;;;16.45;;
69979;SDS011;57318;56.232;43.944;2023-02-01T16:08:52;61.22;;;21.27;;
69979;SDS011;57318;56.232;43.944;2023-02-01T16:11:27;55.92;;;19.02;;
69979;SDS011;57318;56.232;43.944;2023-02-01T16:13:56;59.60;;;22.20;;
69979;SDS011;57318;56.232;43.944;2023-02-01T16:16:24;58.80;;;21.27;;
69979;SDS011;57318;56.232;43.944;2023-02-01T16:21:15;66.20;;;23.13;;
69979;SDS011;57318;56.232;43.944;2023-02-01T16:23:41;64.47;;;21.47;;
69979;SDS011;57318;56.232;43.944;2023-02-01T16:26:06;67.57;;;22.60;;
69979;SDS011;57318;56.232;43.944;2023-02-01T16:28:32;67.23;;;22.67;;
69979;SDS011;57318;56.232;43.944;2023-02-01T16:30:59;56.22;;;20.85;;
69979;SDS011;57318;56.232;43.944;2023-02-01T16:33:25;64.35;;;21.63;;
69979;SDS011;57318;56.232;43.944;2023-02-01T16:35:51;55.75;;;17.90;;
69979;SDS011;57318;56.232;43.944;2023-02-01T16:38:22;66.45;;;21.65;;
69979;SDS011;57318;56.232;43.944;2023-02-01T16:40:48;60.93;;;22.60;;
69979;SDS011;57318;56.232;43.944;2023-02-01T16:45:42;58.53;;;20.43;;
69979;SDS011;57318;56.232;43.944;2023-02-01T16:50:50;58.95;;;20.95;;
69979;SDS011;57318;56.232;43.944;2023-02-01T16:53:18;66.97;;;21.08;;
69979;SDS011;57318;56.232;43.944;2023-02-01T16:55:45;61.05;;;22.25;;
69979;SDS011;57318;56.232;43.944;2023-02-01T16:58:12;60.35;;;21.33;;
69979;SDS011;57318;56.232;43.944;2023-02-01T17:00:39;58.33;;;20.65;;
69979;SDS011;57318;56.232;43.944;2023-02-01T17:03:04;60.77;;;21.43;;
69979;SDS011;57318;56.232;43.944;2023-02-01T17:05:33;59.50;;;21.37;;
69979;SDS011;57318;56.232;43.944;2023-02-01T17:08:01;51.22;;;19.23;;
69979;SDS011;57318;56.232;43.944;2023-02-01T17:10:30;56.42;;;21.63;;
69979;SDS011;57318;56.232;43.944;2023-02-01T17:12:56;56.87;;;21.33;;
69979;SDS011;57318;56.232;43.944;2023-02-01T17:15:23;60.88;;;21.60;;
69979;SDS011;57318;56.232;43.944;2023-02-01T17:17:51;65.95;;;23.70;;
69979;SDS011;57318;56.232;43.944;2023-02-01T17:20:21;54.65;;;20.67;;
69979;SDS011;57318;56.232;43.944;2023-02-01T17:22:49;53.45;;;19.08;;
69979;SDS011;57318;56.232;43.944;2023-02-01T17:25:16;57.47;;;20.77;;
69979;SDS011;57318;56.232;43.944;2023-02-01T17:27:43;66.38;;;23.77;;
69979;SDS011;57318;56.232;43.944;2023-02-01T17:30:10;66.28;;;23.67;;
69979;SDS011;57318;56.232;43.944;2023-02-01T17:32:37;62.15;;;21.35;;
69979;SDS011;57318;56.232;43.944;2023-02-01T17:35:04;57.30;;;20.15;;
69979;SDS011;57318;56.232;43.944;2023-02-01T17:37:31;60.05;;;20.35;;
69979;SDS011;57318;56.232;43.944;2023-02-01T17:39:59;55.00;;;20.75;;
69979;SDS011;57318;56.232;43.944;2023-02-01T17:42:26;63.85;;;22.38;;
69979;SDS011;57318;56.232;43.944;2023-02-01T17:45:00;57.42;;;19.73;;
69979;SDS011;57318;56.232;43.944;2023-02-01T17:47:36;58.47;;;21.20;;
69979;SDS011;57318;56.232;43.944;2023-02-01T17:50:03;59.40;;;20.65;;
69979;SDS011;57318;56.232;43.944;2023-02-01T17:52:28;57.05;;;22.42;;
69979;SDS011;57318;56.232;43.944;2023-02-01T17:54:54;65.90;;;24.43;;
69979;SDS011;57318;56.232;43.944;2023-02-01T17:57:20;60.83;;;22.30;;